Terminal Aerodrome Forecast
Issued by NWS

Home | Current Version | Previous Version | Text Only | Print | Product List | Glossary On
Versions: 1 2 3 4 5 6 7 8 9 10 11 12 13 14
000
FTUS42 TJSJ 011700
TAFJMZ
TAF
TJMZ 011730Z 0118/0218 27007KT P6SM SCT030
     FM012230 05005KT P6SM SCT025
     FM021430 06010KT P6SM SCT025 SCT060
     FM021730 06012KT P6SM VCSH BKN030
      AMD NOT SKED=

USA.gov is the U.S. government's official web portal to all federal, state and local government web resources and services.